Time;durP1;ratioP1;P1;durP2;ratioP2;P2;SDS_P1;SDS_P2;PMS_P1;PMS_P2;Temp;Humidity;BMP_temperature;BMP_pressure;BME280_temperature;BME280_humidity;BME280_pressure;Samples;Min_cycle;Max_cycle;Signal;HPM_P1;HPM_P2
2023/08/28 00:01:23;;;;;;;0.80;0.80;;;21.50;99.90;;;;;;5105109;28;20192;-68
2023/08/28 00:03:51;;;;;;;0.90;0.90;;;21.50;99.90;;;;;;5091554;28;20670;-68
2023/08/28 00:06:19;;;;;;;1.00;1.00;;;21.50;99.90;;;;;;5106038;28;20655;-68
2023/08/28 00:08:46;;;;;;;0.98;0.98;;;21.50;99.90;;;;;;5074839;28;20220;-68
2023/08/28 00:11:13;;;;;;;0.85;0.85;;;21.50;99.90;;;;;;5081860;28;20200;-68
2023/08/28 00:13:40;;;;;;;0.77;0.77;;;21.50;99.90;;;;;;5081022;28;20555;-68
2023/08/28 00:16:09;;;;;;;0.93;0.93;;;21.50;99.90;;;;;;5103966;28;20280;-68
2023/08/28 00:18:36;;;;;;;0.95;0.95;;;21.50;99.90;;;;;;5072239;28;20545;-68
2023/08/28 00:21:04;;;;;;;0.80;0.80;;;21.50;99.90;;;;;;5106442;28;20195;-68
2023/08/28 00:23:32;;;;;;;1.27;1.17;;;21.60;99.90;;;;;;5093034;28;20208;-68
2023/08/28 00:25:59;;;;;;;2.05;1.15;;;21.60;99.90;;;;;;5099822;28;20253;-68
2023/08/28 00:28:27;;;;;;;1.17;1.10;;;21.60;99.90;;;;;;5095324;28;20207;-68
2023/08/28 00:30:54;;;;;;;2.20;1.27;;;21.50;99.90;;;;;;5105520;28;20202;-68
2023/08/28 00:33:21;;;;;;;1.23;1.20;;;21.50;99.90;;;;;;5095178;28;20208;-68
2023/08/28 00:35:48;;;;;;;1.23;1.23;;;21.40;99.90;;;;;;5087722;28;20207;-68
2023/08/28 00:38:17;;;;;;;1.00;1.00;;;21.40;99.90;;;;;;5114084;28;20257;-68
2023/08/28 00:40:44;;;;;;;1.10;1.10;;;21.30;99.90;;;;;;5081661;28;20224;-67
2023/08/28 00:43:11;;;;;;;1.20;1.20;;;21.30;99.90;;;;;;5094940;28;20702;-67
2023/08/28 00:45:44;;;;;;;1.15;1.15;;;21.30;99.90;;;;;;5088916;28;20813;-67
2023/08/28 00:48:15;;;;;;;1.40;1.30;;;21.20;99.90;;;;;;5086208;28;20230;-67
2023/08/28 00:50:43;;;;;;;1.23;1.23;;;21.30;99.90;;;;;;5106879;28;20222;-68
2023/08/28 00:53:11;;;;;;;1.20;1.20;;;21.30;99.90;;;;;;5082328;28;20196;-68
2023/08/28 00:55:41;;;;;;;1.75;1.30;;;21.30;99.90;;;;;;5103436;28;20192;-68
2023/08/28 00:58:08;;;;;;;1.08;0.98;;;21.20;99.90;;;;;;5093640;28;20243;-68
2023/08/28 01:03:18;;;;;;;1.40;1.30;;;21.20;99.90;;;;;;5245611;22;20587;-68
2023/08/28 01:06:04;;;;;;;0.90;0.90;;;21.20;99.90;;;;;;5031098;28;20649;-67
2023/08/28 01:08:37;;;;;;;1.10;1.10;;;21.20;99.90;;;;;;5029150;28;20340;-67
2023/08/28 01:11:13;;;;;;;0.90;0.90;;;21.10;99.90;;;;;;5016872;28;20288;-67
2023/08/28 01:13:48;;;;;;;1.05;1.05;;;21.10;99.90;;;;;;5029338;28;20304;-67
2023/08/28 01:16:17;;;;;;;1.27;1.20;;;21.10;99.90;;;;;;5026683;28;20272;-67
2023/08/28 01:18:44;;;;;;;0.80;0.80;;;21.00;99.90;;;;;;5008701;28;20214;-67
2023/08/28 01:21:12;;;;;;;2.95;1.10;;;21.00;99.90;;;;;;5020310;28;20534;-67
2023/08/28 01:23:41;;;;;;;1.73;1.20;;;20.90;99.90;;;;;;5010402;28;20317;-68
2023/08/28 01:26:09;;;;;;;0.90;0.90;;;20.90;99.90;;;;;;5008828;28;20260;-67
2023/08/28 01:28:36;;;;;;;1.13;1.13;;;20.90;99.90;;;;;;5023974;28;20195;-67
2023/08/28 01:31:05;;;;;;;0.88;0.88;;;20.90;99.90;;;;;;5010585;28;20207;-67
2023/08/28 01:33:33;;;;;;;0.90;0.90;;;20.90;99.90;;;;;;5005381;28;20192;-68
2023/08/28 01:36:07;;;;;;;0.90;0.90;;;21.00;99.90;;;;;;5027279;28;20225;-68
2023/08/28 01:38:40;;;;;;;0.70;0.70;;;20.90;99.90;;;;;;5005747;28;20203;-68
2023/08/28 01:41:11;;;;;;;0.70;0.70;;;20.90;99.90;;;;;;5027975;28;20719;-67
2023/08/28 01:43:39;;;;;;;0.70;0.70;;;20.90;99.90;;;;;;5023976;28;20343;-67
2023/08/28 01:46:06;;;;;;;2.33;0.82;;;20.90;99.90;;;;;;5009233;28;20203;-68
2023/08/28 01:48:35;;;;;;;0.93;0.93;;;20.80;99.90;;;;;;5025039;28;20265;-68
2023/08/28 01:51:02;;;;;;;0.90;0.90;;;20.80;99.90;;;;;;5017062;28;20666;-68
2023/08/28 01:53:30;;;;;;;0.80;0.80;;;20.80;99.90;;;;;;5030758;28;20801;-68
2023/08/28 01:56:17;;;;;;;0.90;0.90;;;20.80;99.90;;;;;;5030251;28;20194;-68
2023/08/28 01:58:47;;;;;;;0.90;0.90;;;20.80;99.90;;;;;;5012038;28;20552;-68
2023/08/28 02:01:15;;;;;;;0.85;0.85;;;20.80;99.90;;;;;;5016336;28;20657;-68
2023/08/28 02:03:42;;;;;;;0.80;0.80;;;20.80;99.90;;;;;;5020922;28;20642;-67
2023/08/28 02:06:10;;;;;;;0.70;0.70;;;20.90;99.90;;;;;;5012296;28;20412;-67
2023/08/28 02:08:37;;;;;;;1.05;0.70;;;20.90;99.90;;;;;;5029743;28;20246;-68
2023/08/28 02:11:05;;;;;;;0.70;0.70;;;20.90;99.90;;;;;;5009726;28;20225;-68
2023/08/28 02:13:33;;;;;;;0.75;0.75;;;21.00;99.90;;;;;;5018306;28;20230;-68
2023/08/28 02:16:02;;;;;;;0.90;0.90;;;20.90;99.90;;;;;;5024821;28;20555;-68
2023/08/28 02:18:30;;;;;;;1.05;1.05;;;20.90;99.90;;;;;;5023320;28;20206;-68
2023/08/28 02:20:57;;;;;;;1.13;0.90;;;20.80;99.90;;;;;;5011302;28;20199;-68
2023/08/28 02:23:26;;;;;;;0.80;0.80;;;20.80;99.90;;;;;;5029246;28;20283;-68
2023/08/28 02:25:54;;;;;;;0.80;0.80;;;20.70;99.90;;;;;;5023262;28;20193;-68
2023/08/28 02:28:21;;;;;;;0.75;0.75;;;20.60;99.90;;;;;;5012727;28;20237;-68
2023/08/28 02:30:49;;;;;;;0.80;0.80;;;20.60;99.90;;;;;;5006152;28;20209;-68
2023/08/28 02:33:16;;;;;;;0.90;0.90;;;20.60;99.90;;;;;;5025355;28;20210;-68
2023/08/28 02:35:44;;;;;;;0.60;0.60;;;20.60;99.90;;;;;;5011365;28;20670;-68
2023/08/28 02:38:11;;;;;;;0.80;0.80;;;20.60;99.90;;;;;;5030422;28;20205;-68
2023/08/28 02:40:39;;;;;;;0.85;0.85;;;20.50;99.90;;;;;;5009097;28;20213;-68
2023/08/28 02:43:07;;;;;;;0.70;0.70;;;20.50;99.90;;;;;;5028371;28;20199;-68
2023/08/28 02:45:35;;;;;;;0.70;0.70;;;20.50;99.90;;;;;;5010808;28;20278;-68
2023/08/28 02:48:04;;;;;;;0.70;0.70;;;20.50;99.90;;;;;;5029108;28;20199;-68
2023/08/28 02:50:32;;;;;;;0.70;0.70;;;20.50;99.90;;;;;;5011571;28;20198;-68
2023/08/28 02:52:59;;;;;;;0.70;0.70;;;20.50;99.90;;;;;;5025565;28;20293;-68
2023/08/28 02:55:26;;;;;;;0.85;0.85;;;20.40;99.90;;;;;;5011634;28;20245;-68
2023/08/28 02:57:53;;;;;;;0.65;0.65;;;20.40;99.90;;;;;;5018379;28;20502;-68
2023/08/28 03:00:20;;;;;;;0.90;0.90;;;20.40;99.90;;;;;;5030172;28;20200;-68
2023/08/28 03:02:48;;;;;;;0.80;0.80;;;20.40;99.90;;;;;;5020201;28;20661;-68
2023/08/28 03:05:17;;;;;;;0.77;0.77;;;20.40;99.90;;;;;;5027326;28;20218;-68
2023/08/28 03:07:44;;;;;;;1.20;1.10;;;20.40;99.90;;;;;;5014480;28;20210;-68
2023/08/28 03:10:10;;;;;;;0.80;0.80;;;20.50;99.90;;;;;;5015927;28;20344;-68
2023/08/28 03:12:38;;;;;;;0.60;0.60;;;20.40;99.90;;;;;;5013035;28;20205;-68
2023/08/28 03:15:06;;;;;;;0.73;0.73;;;20.40;99.90;;;;;;5027216;28;20252;-68
2023/08/28 03:17:33;;;;;;;0.57;0.57;;;20.50;99.90;;;;;;5006088;28;20202;-68
2023/08/28 03:20:00;;;;;;;0.68;0.68;;;20.50;99.90;;;;;;5010716;28;20210;-68
2023/08/28 03:22:29;;;;;;;0.93;0.93;;;20.50;99.90;;;;;;5017209;28;20234;-68
2023/08/28 03:24:56;;;;;;;0.70;0.70;;;20.40;99.90;;;;;;5012681;28;20202;-68
2023/08/28 03:27:23;;;;;;;0.80;0.80;;;20.40;99.90;;;;;;5017667;28;20217;-68
2023/08/28 03:29:50;;;;;;;0.73;0.73;;;20.40;99.90;;;;;;5030123;28;20717;-68
2023/08/28 03:32:17;;;;;;;0.73;0.73;;;20.40;99.90;;;;;;5028848;28;20199;-68
2023/08/28 03:34:44;;;;;;;0.60;0.60;;;20.30;99.90;;;;;;5030453;28;20190;-67
2023/08/28 03:37:11;;;;;;;0.80;0.80;;;20.30;99.90;;;;;;5030114;28;20202;-67
2023/08/28 03:39:39;;;;;;;0.70;0.70;;;20.20;99.90;;;;;;5030067;28;20574;-68
2023/08/28 03:42:07;;;;;;;1.13;1.02;;;20.20;99.90;;;;;;5007654;28;20252;-68
2023/08/28 03:44:34;;;;;;;0.80;0.80;;;20.20;99.90;;;;;;5012329;28;20219;-68
2023/08/28 03:47:01;;;;;;;0.80;0.80;;;20.10;99.90;;;;;;5009301;28;20220;-68
2023/08/28 03:49:28;;;;;;;0.82;0.82;;;20.10;99.90;;;;;;5029969;28;20600;-68
2023/08/28 03:51:59;;;;;;;0.90;0.90;;;20.10;99.90;;;;;;5017379;28;20630;-68
2023/08/28 03:54:28;;;;;;;1.00;0.90;;;20.10;99.90;;;;;;5032628;28;20527;-68
2023/08/28 03:56:56;;;;;;;0.77;0.77;;;20.00;99.90;;;;;;5028094;28;20214;-67
2023/08/28 03:59:23;;;;;;;0.95;0.93;;;20.10;99.90;;;;;;5016495;28;20221;-68
2023/08/28 04:01:51;;;;;;;0.88;0.88;;;20.00;99.90;;;;;;5017222;28;20213;-68
2023/08/28 04:04:19;;;;;;;1.17;1.08;;;20.00;99.90;;;;;;5033662;28;20738;-68
2023/08/28 04:06:46;;;;;;;0.80;0.80;;;19.90;99.90;;;;;;5033996;28;20665;-68
2023/08/28 04:09:14;;;;;;;1.27;1.17;;;19.90;99.90;;;;;;5027768;28;20301;-68
2023/08/28 04:11:42;;;;;;;0.90;0.90;;;19.90;99.90;;;;;;5026362;28;20206;-68
2023/08/28 04:14:10;;;;;;;0.90;0.90;;;19.90;99.90;;;;;;5022133;28;20301;-68
2023/08/28 04:16:37;;;;;;;1.02;1.02;;;19.90;99.90;;;;;;5016464;28;20748;-68
2023/08/28 04:19:05;;;;;;;1.00;0.90;;;19.90;99.90;;;;;;5032494;28;20201;-68
2023/08/28 04:21:32;;;;;;;0.80;0.80;;;20.00;99.90;;;;;;5015755;28;20203;-68
2023/08/28 04:23:59;;;;;;;0.80;0.80;;;20.00;99.90;;;;;;5033596;28;20244;-68
2023/08/28 04:26:26;;;;;;;0.80;0.80;;;20.00;99.90;;;;;;5014301;28;20264;-67
2023/08/28 04:28:54;;;;;;;1.02;1.02;;;20.00;99.90;;;;;;5033608;28;20225;-67
2023/08/28 04:31:23;;;;;;;0.80;0.80;;;20.00;99.90;;;;;;5015304;28;20206;-67
2023/08/28 04:33:51;;;;;;;0.90;0.90;;;20.00;99.90;;;;;;5032445;28;20245;-68
2023/08/28 04:36:18;;;;;;;1.15;1.15;;;20.00;99.90;;;;;;5033306;28;20194;-67
2023/08/28 04:38:45;;;;;;;0.93;0.90;;;19.90;99.90;;;;;;5015399;28;20226;-68
2023/08/28 04:41:12;;;;;;;0.82;0.82;;;19.90;99.90;;;;;;5013502;28;20205;-68
2023/08/28 04:43:39;;;;;;;2.58;0.82;;;19.90;99.90;;;;;;5015090;28;20256;-68
2023/08/28 04:46:06;;;;;;;0.95;0.90;;;20.00;99.90;;;;;;5011152;28;20214;-68
2023/08/28 04:48:35;;;;;;;1.00;1.00;;;19.90;99.90;;;;;;5030275;28;20286;-68
2023/08/28 04:51:03;;;;;;;0.90;0.90;;;20.00;99.90;;;;;;5015051;28;20191;-68
2023/08/28 04:53:30;;;;;;;1.15;1.10;;;19.90;99.90;;;;;;5015273;28;20217;-68
2023/08/28 04:55:57;;;;;;;0.80;0.80;;;19.90;99.90;;;;;;5014304;28;20195;-68
2023/08/28 04:58:24;;;;;;;0.90;0.90;;;19.90;99.90;;;;;;5031503;28;20214;-68
2023/08/28 05:00:51;;;;;;;1.85;1.13;;;19.90;99.90;;;;;;5028125;28;20241;-68
2023/08/28 05:03:18;;;;;;;1.10;1.10;;;19.90;99.90;;;;;;5027343;28;20605;-68
2023/08/28 05:05:47;;;;;;;1.45;1.20;;;19.90;99.90;;;;;;4993443;28;20268;-68
2023/08/28 05:08:15;;;;;;;0.95;0.95;;;19.80;99.90;;;;;;5009011;28;20294;-68
2023/08/28 05:10:42;;;;;;;1.10;1.10;;;19.80;99.90;;;;;;5007940;28;20597;-71
2023/08/28 05:13:09;;;;;;;0.75;0.75;;;19.80;99.90;;;;;;5025705;28;20202;-70
2023/08/28 05:15:36;;;;;;;0.98;0.98;;;19.80;99.90;;;;;;5012854;28;20190;-70
2023/08/28 05:18:05;;;;;;;1.30;1.00;;;19.80;99.90;;;;;;5009740;28;20241;-71
2023/08/28 05:20:32;;;;;;;2.55;1.17;;;19.90;99.90;;;;;;5022268;28;20258;-70
2023/08/28 05:23:00;;;;;;;1.15;1.10;;;19.90;99.90;;;;;;5010707;28;20194;-70
2023/08/28 05:25:27;;;;;;;1.17;1.08;;;19.80;99.90;;;;;;5029722;28;20264;-70
2023/08/28 05:27:55;;;;;;;1.00;1.00;;;19.90;99.90;;;;;;5009227;28;20206;-71
2023/08/28 05:30:24;;;;;;;1.00;1.00;;;19.90;99.90;;;;;;5009615;28;20201;-70
2023/08/28 05:32:51;;;;;;;1.15;1.10;;;19.90;99.90;;;;;;5025935;28;20190;-71
2023/08/28 05:35:18;;;;;;;0.95;0.95;;;19.90;99.90;;;;;;5015574;28;20295;-70
2023/08/28 05:37:45;;;;;;;1.10;1.10;;;19.90;99.90;;;;;;5025344;28;20293;-71
2023/08/28 05:40:15;;;;;;;1.50;1.40;;;19.90;99.90;;;;;;5030151;28;20284;-71
2023/08/28 05:42:43;;;;;;;1.40;1.30;;;19.90;99.90;;;;;;5027367;28;20190;-71
2023/08/28 05:45:11;;;;;;;1.30;1.20;;;19.90;99.90;;;;;;5030248;28;20245;-71
2023/08/28 05:47:38;;;;;;;1.10;1.10;;;19.90;99.90;;;;;;5025862;28;20268;-71
2023/08/28 05:50:06;;;;;;;1.00;1.00;;;20.00;99.90;;;;;;5029811;28;20202;-72
2023/08/28 05:52:34;;;;;;;1.10;1.10;;;20.10;99.90;;;;;;4996816;28;20207;-72
2023/08/28 05:55:01;;;;;;;1.15;1.08;;;20.10;99.90;;;;;;5029804;28;20590;-72
2023/08/28 05:57:29;;;;;;;1.52;1.10;;;20.10;99.90;;;;;;5028857;28;20551;-70
2023/08/28 05:59:57;;;;;;;1.00;1.00;;;20.20;99.90;;;;;;5024090;28;20217;-71
2023/08/28 06:02:25;;;;;;;5.50;1.00;;;20.20;99.90;;;;;;5010351;28;20330;-72
2023/08/28 06:04:52;;;;;;;0.95;0.95;;;20.30;99.90;;;;;;5030280;28;20211;-70
2023/08/28 06:07:19;;;;;;;0.88;0.88;;;20.30;99.90;;;;;;5022898;28;20605;-70
2023/08/28 06:09:46;;;;;;;0.77;0.77;;;20.40;99.90;;;;;;5025561;28;20227;-69
2023/08/28 06:12:13;;;;;;;1.30;0.90;;;20.40;99.90;;;;;;5003946;28;20605;-71
2023/08/28 06:14:42;;;;;;;0.90;0.90;;;20.40;99.90;;;;;;5030403;28;20273;-71
2023/08/28 06:17:09;;;;;;;1.70;1.60;;;20.50;99.90;;;;;;5002298;28;20199;-71
2023/08/28 06:19:36;;;;;;;1.30;1.20;;;20.50;99.90;;;;;;5029830;28;20220;-71
2023/08/28 06:22:05;;;;;;;0.88;0.88;;;20.60;99.90;;;;;;5022883;28;20202;-70
2023/08/28 06:24:32;;;;;;;1.20;1.10;;;20.60;99.90;;;;;;5030009;28;20252;-71
2023/08/28 06:26:59;;;;;;;1.27;1.25;;;20.70;99.90;;;;;;5028151;28;20642;-70
2023/08/28 06:29:26;;;;;;;1.08;1.08;;;20.80;99.90;;;;;;5011661;28;20610;-70
2023/08/28 06:31:55;;;;;;;1.23;1.13;;;20.80;99.90;;;;;;5028167;28;20206;-70
2023/08/28 06:34:22;;;;;;;0.90;0.90;;;20.90;99.90;;;;;;5028531;28;20190;-70
2023/08/28 06:36:51;;;;;;;1.00;1.00;;;20.90;99.90;;;;;;5024516;28;20213;-70
2023/08/28 06:39:19;;;;;;;0.80;0.80;;;21.00;99.90;;;;;;5028886;28;20194;-71
2023/08/28 06:41:46;;;;;;;1.00;1.00;;;21.00;99.90;;;;;;5018841;28;20226;-70
2023/08/28 06:44:13;;;;;;;0.90;0.90;;;21.00;99.90;;;;;;5028828;28;20199;-70
2023/08/28 06:46:40;;;;;;;1.25;1.15;;;21.10;99.90;;;;;;5023898;28;20290;-71
2023/08/28 06:49:08;;;;;;;1.27;1.05;;;21.10;99.90;;;;;;5028361;28;20202;-70
2023/08/28 06:51:36;;;;;;;1.45;1.00;;;21.20;99.90;;;;;;5010490;28;20191;-70
2023/08/28 06:54:03;;;;;;;1.30;1.20;;;21.20;99.90;;;;;;5010932;28;20202;-70
2023/08/28 06:56:30;;;;;;;1.20;1.10;;;21.30;99.90;;;;;;5024069;28;20203;-70
2023/08/28 06:58:57;;;;;;;2.78;1.15;;;21.30;99.90;;;;;;5027285;28;20406;-71
2023/08/28 07:01:24;;;;;;;1.90;1.08;;;21.40;99.90;;;;;;5025895;28;20318;-71
2023/08/28 07:03:51;;;;;;;1.92;1.60;;;21.40;99.90;;;;;;5025465;28;20387;-71
2023/08/28 07:06:20;;;;;;;1.50;1.40;;;21.40;99.90;;;;;;5026571;28;20238;-71
2023/08/28 07:08:47;;;;;;;1.60;1.30;;;21.40;99.90;;;;;;5022000;28;20191;-71
2023/08/28 07:11:14;;;;;;;1.25;1.20;;;21.40;99.90;;;;;;5026009;28;20629;-71
2023/08/28 07:13:41;;;;;;;1.40;1.30;;;21.40;99.90;;;;;;5025032;28;20206;-71
2023/08/28 07:16:08;;;;;;;2.05;1.23;;;21.50;99.90;;;;;;5027341;28;20214;-71
2023/08/28 07:18:35;;;;;;;1.58;1.17;;;21.50;99.90;;;;;;5021634;28;20301;-71
2023/08/28 07:21:02;;;;;;;1.40;1.30;;;21.50;99.90;;;;;;5028375;28;20673;-71
2023/08/28 07:23:31;;;;;;;1.35;1.13;;;21.50;99.90;;;;;;5006834;28;20562;-70
2023/08/28 07:25:59;;;;;;;1.60;1.02;;;21.50;99.90;;;;;;5027635;28;20778;-70
2023/08/28 07:28:26;;;;;;;1.05;1.05;;;21.60;99.90;;;;;;5024681;28;20201;-71
2023/08/28 07:30:57;;;;;;;0.80;0.80;;;21.60;99.90;;;;;;5028361;28;20207;-71
2023/08/28 07:33:24;;;;;;;0.82;0.82;;;21.60;99.90;;;;;;5006768;28;20589;-71
2023/08/28 07:35:51;;;;;;;1.10;1.10;;;21.70;99.90;;;;;;5028528;28;20227;-71
2023/08/28 07:38:19;;;;;;;0.93;0.88;;;21.70;99.90;;;;;;5027493;28;20219;-71
2023/08/28 07:40:49;;;;;;;1.08;0.95;;;21.80;99.90;;;;;;5025318;28;20317;-71
2023/08/28 07:43:16;;;;;;;2.05;1.42;;;21.80;99.90;;;;;;5005684;28;20199;-71
2023/08/28 07:45:43;;;;;;;2.60;1.10;;;21.80;99.90;;;;;;5028396;28;20218;-72
2023/08/28 07:48:10;;;;;;;1.10;1.00;;;21.90;99.90;;;;;;5026865;28;20199;-71
2023/08/28 07:50:38;;;;;;;1.20;1.20;;;21.90;99.90;;;;;;5023356;28;20229;-71
2023/08/28 07:53:06;;;;;;;1.55;1.30;;;21.90;99.90;;;;;;5012571;28;20740;-71
2023/08/28 07:55:33;;;;;;;1.10;1.10;;;21.90;99.90;;;;;;5028378;28;20646;-71
2023/08/28 07:58:01;;;;;;;2.03;1.30;;;22.00;99.90;;;;;;5017588;28;20242;-71
2023/08/28 08:00:28;;;;;;;1.48;0.98;;;22.00;99.90;;;;;;5020668;28;20666;-72
2023/08/28 08:02:56;;;;;;;1.50;1.40;;;22.10;99.90;;;;;;5024496;28;20230;-72
2023/08/28 08:05:23;;;;;;;1.10;1.10;;;22.10;99.90;;;;;;5020686;28;20256;-71
2023/08/28 08:07:50;;;;;;;1.35;1.25;;;22.20;99.90;;;;;;5006447;28;20562;-71
2023/08/28 08:10:20;;;;;;;3.15;1.30;;;22.30;99.90;;;;;;5027218;28;20195;-71
2023/08/28 08:12:47;;;;;;;1.45;1.35;;;22.40;99.90;;;;;;5021992;28;20186;-72
2023/08/28 08:15:16;;;;;;;1.27;1.27;;;22.50;99.90;;;;;;5011478;28;20245;-71
2023/08/28 08:17:43;;;;;;;0.95;0.95;;;22.50;99.90;;;;;;5001928;28;20211;-71
2023/08/28 08:20:12;;;;;;;1.17;1.08;;;22.50;99.90;;;;;;5028146;28;20222;-70
2023/08/28 08:22:40;;;;;;;2.45;1.30;;;22.60;99.90;;;;;;5026237;28;20205;-70
2023/08/28 08:25:09;;;;;;;1.10;1.10;;;22.60;99.90;;;;;;5028218;28;20191;-70
2023/08/28 08:27:39;;;;;;;1.10;1.10;;;22.60;99.90;;;;;;5026003;28;20208;-71
2023/08/28 08:30:08;;;;;;;1.60;1.30;;;22.70;99.90;;;;;;5028569;28;20191;-71
2023/08/28 08:32:36;;;;;;;1.63;1.40;;;22.70;99.90;;;;;;5021139;28;20192;-71
2023/08/28 08:35:05;;;;;;;1.50;1.40;;;22.70;99.90;;;;;;5028356;28;20187;-70
2023/08/28 08:37:32;;;;;;;1.52;1.42;;;22.70;99.90;;;;;;5025110;28;20198;-71
2023/08/28 08:39:59;;;;;;;1.00;1.00;;;22.70;99.90;;;;;;5029554;28;20268;-71
2023/08/28 08:42:27;;;;;;;1.50;1.40;;;22.70;99.90;;;;;;5024251;28;20196;-71
2023/08/28 08:44:57;;;;;;;0.98;0.98;;;22.80;99.90;;;;;;5016550;28;20191;-71
2023/08/28 08:47:24;;;;;;;1.60;1.50;;;22.80;99.90;;;;;;5023663;28;20238;-71
2023/08/28 08:49:57;;;;;;;2.25;1.33;;;22.90;99.90;;;;;;5031833;28;20588;-71
2023/08/28 08:52:24;;;;;;;1.70;1.60;;;22.90;99.90;;;;;;5031570;28;20220;-71
2023/08/28 08:55:00;;;;;;;1.67;1.45;;;22.80;99.90;;;;;;5015507;28;20747;-71
2023/08/28 08:57:34;;;;;;;2.00;1.48;;;23.00;99.90;;;;;;5028016;28;20194;-71
2023/08/28 09:00:03;;;;;;;3.05;1.88;;;23.00;99.90;;;;;;5021384;28;20737;-71
2023/08/28 09:02:31;;;;;;;1.90;1.80;;;23.00;99.90;;;;;;5025794;28;20231;-71
2023/08/28 09:05:00;;;;;;;2.45;2.25;;;23.00;99.90;;;;;;5031441;28;20195;-72
2023/08/28 09:07:28;;;;;;;1.80;1.70;;;23.10;99.90;;;;;;5027552;28;20203;-71
2023/08/28 09:09:57;;;;;;;1.92;1.83;;;23.00;99.90;;;;;;5027680;28;20210;-71
2023/08/28 09:12:24;;;;;;;2.35;1.80;;;23.00;99.90;;;;;;5029022;28;20218;-71
2023/08/28 09:14:51;;;;;;;3.13;1.77;;;23.00;99.90;;;;;;5026902;28;20257;-71
2023/08/28 09:17:19;;;;;;;2.25;1.73;;;23.00;99.90;;;;;;5010309;28;20669;-71
2023/08/28 09:19:47;;;;;;;1.63;1.50;;;23.10;99.90;;;;;;5029762;28;20222;-71
2023/08/28 09:22:15;;;;;;;1.70;1.48;;;23.20;99.90;;;;;;5029137;28;20225;-70
2023/08/28 09:24:42;;;;;;;2.05;1.65;;;23.30;99.90;;;;;;5012134;28;20760;-70
2023/08/28 09:27:13;;;;;;;2.20;2.00;;;23.40;99.90;;;;;;5021690;28;20207;-71
2023/08/28 09:29:40;;;;;;;2.58;2.38;;;23.50;99.90;;;;;;5010198;28;20195;-71
2023/08/28 09:32:07;;;;;;;2.25;2.10;;;23.60;99.90;;;;;;5023089;28;20302;-71
2023/08/28 09:34:39;;;;;;;2.05;1.88;;;23.60;99.90;;;;;;5030865;28;20681;-71
2023/08/28 09:37:10;;;;;;;2.67;1.85;;;23.60;99.90;;;;;;5029749;28;20195;-71
2023/08/28 09:39:42;;;;;;;2.90;1.60;;;23.80;99.90;;;;;;5003090;28;20187;-71
2023/08/28 09:42:10;;;;;;;2.60;1.90;;;23.80;99.90;;;;;;5028152;28;20248;-71
2023/08/28 09:44:37;;;;;;;1.60;1.50;;;23.90;99.90;;;;;;5024217;28;20245;-72
2023/08/28 09:47:06;;;;;;;4.40;1.88;;;23.90;99.90;;;;;;5027403;28;20234;-71
2023/08/28 09:49:43;;;;;;;2.17;1.42;;;23.80;99.90;;;;;;5019454;28;21100;-72
2023/08/28 09:52:12;;;;;;;2.63;1.60;;;23.90;99.90;;;;;;5028211;28;20214;-72
2023/08/28 09:54:39;;;;;;;2.13;1.52;;;24.00;99.90;;;;;;5021841;28;20199;-71
2023/08/28 09:57:16;;;;;;;1.77;1.67;;;24.10;99.90;;;;;;5025571;28;20558;-71
2023/08/28 09:59:43;;;;;;;2.70;1.50;;;24.20;99.90;;;;;;5025731;28;20214;-71
2023/08/28 10:02:17;;;;;;;2.33;1.50;;;24.30;99.90;;;;;;5012753;28;20198;-71
2023/08/28 10:04:45;;;;;;;1.92;1.73;;;24.30;99.80;;;;;;5030026;28;20195;-71
2023/08/28 10:07:12;;;;;;;2.28;1.67;;;24.30;99.40;;;;;;5029724;28;20238;-72
2023/08/28 10:09:43;;;;;;;2.92;1.88;;;24.40;99.00;;;;;;5019629;28;20199;-71
2023/08/28 10:12:12;;;;;;;2.42;1.70;;;24.40;98.90;;;;;;5028483;28;20202;-71
2023/08/28 10:14:41;;;;;;;1.60;1.38;;;24.50;98.40;;;;;;5027332;28;20194;-71
2023/08/28 10:17:13;;;;;;;2.20;1.55;;;24.50;98.20;;;;;;5027318;28;20654;-70
2023/08/28 10:19:45;;;;;;;1.90;1.50;;;24.60;98.10;;;;;;5028304;28;20253;-70
2023/08/28 10:22:13;;;;;;;1.55;1.27;;;24.70;98.00;;;;;;5029883;28;20245;-70
2023/08/28 10:24:42;;;;;;;1.88;1.40;;;24.80;97.70;;;;;;5029267;28;20226;-70
2023/08/28 10:27:10;;;;;;;4.00;1.73;;;24.90;97.40;;;;;;5010980;28;20214;-70
2023/08/28 10:29:40;;;;;;;2.50;1.58;;;24.90;96.20;;;;;;5017866;28;20201;-70
2023/08/28 10:32:10;;;;;;;2.80;1.42;;;24.90;95.80;;;;;;5028364;28;20224;-67
2023/08/28 10:34:39;;;;;;;2.13;1.92;;;24.90;95.90;;;;;;5023600;28;20222;-67
2023/08/28 10:37:08;;;;;;;1.50;1.20;;;24.90;95.40;;;;;;5011002;28;20198;-67
2023/08/28 10:39:36;;;;;;;1.70;1.30;;;25.00;95.10;;;;;;5002959;28;20249;-67
2023/08/28 10:42:05;;;;;;;1.45;1.35;;;25.10;95.00;;;;;;5027403;28;20248;-67
2023/08/28 10:44:33;;;;;;;1.55;1.45;;;25.10;95.00;;;;;;5023093;28;20733;-69
2023/08/28 10:47:01;;;;;;;2.45;1.30;;;25.20;94.50;;;;;;5028172;28;20298;-69
2023/08/28 10:49:30;;;;;;;2.65;1.05;;;25.20;94.50;;;;;;5022927;28;20198;-70
2023/08/28 10:52:02;;;;;;;2.58;1.80;;;25.20;94.70;;;;;;5028089;28;20209;-70
2023/08/28 10:54:37;;;;;;;1.55;1.45;;;25.30;94.10;;;;;;5024245;28;20190;-70
2023/08/28 10:57:10;;;;;;;1.85;1.40;;;25.20;93.60;;;;;;5027523;28;20689;-70
2023/08/28 10:59:44;;;;;;;1.50;1.40;;;25.10;93.70;;;;;;5020428;28;20195;-70
2023/08/28 11:02:12;;;;;;;1.30;1.20;;;25.20;94.00;;;;;;5015670;28;20278;-71
2023/08/28 11:04:40;;;;;;;2.70;1.55;;;25.30;93.90;;;;;;5026271;28;20654;-71
2023/08/28 11:07:45;;;;;;;1.27;1.23;;;25.30;93.30;;;;;;5023840;28;20306;-71
2023/08/28 11:10:17;;;;;;;2.55;1.23;;;25.30;93.10;;;;;;5026725;28;20249;-71
2023/08/28 11:12:53;;;;;;;1.67;1.10;;;25.40;93.00;;;;;;5005421;28;20203;-71
2023/08/28 11:15:31;;;;;;;1.92;1.38;;;25.50;92.60;;;;;;5023900;28;20218;-71
2023/08/28 11:18:26;;;;;;;2.83;1.15;;;25.40;92.20;;;;;;5023941;28;20194;-70
2023/08/28 11:20:53;;;;;;;1.90;1.40;;;25.30;92.00;;;;;;5022445;28;20202;-70
2023/08/28 11:23:24;;;;;;;1.63;1.48;;;25.20;91.80;;;;;;5024696;28;20203;-71
2023/08/28 11:25:52;;;;;;;1.88;1.38;;;25.20;91.60;;;;;;5027154;28;20281;-71
2023/08/28 11:28:26;;;;;;;1.95;1.17;;;25.10;91.90;;;;;;5024454;28;20302;-70
2023/08/28 11:30:58;;;;;;;3.65;1.35;;;25.00;91.90;;;;;;5025504;28;20239;-70
2023/08/28 11:33:27;;;;;;;1.40;1.20;;;25.00;92.10;;;;;;5009740;28;20252;-70
2023/08/28 11:35:59;;;;;;;1.20;1.10;;;24.90;91.60;;;;;;5027918;28;20551;-70
2023/08/28 11:38:28;;;;;;;2.33;1.33;;;24.80;91.20;;;;;;5024443;28;20222;-71
2023/08/28 11:40:58;;;;;;;2.90;1.20;;;24.80;91.10;;;;;;5026530;28;20187;-70
2023/08/28 11:43:25;;;;;;;1.40;1.25;;;24.70;90.90;;;;;;5024588;28;20246;-70
2023/08/28 11:45:57;;;;;;;2.90;1.20;;;24.70;90.80;;;;;;5023771;28;20909;-70
2023/08/28 11:48:24;;;;;;;1.30;1.15;;;24.60;90.70;;;;;;5020796;28;20211;-70
2023/08/28 11:50:51;;;;;;;3.47;1.55;;;24.60;90.80;;;;;;5012719;28;20559;-70
2023/08/28 11:53:33;;;;;;;1.38;1.00;;;24.50;90.90;;;;;;5021855;28;20248;-69
2023/08/28 11:56:03;;;;;;;2.05;1.17;;;24.50;91.30;;;;;;5026732;28;20253;-69
2023/08/28 11:58:31;;;;;;;1.23;0.98;;;24.60;90.90;;;;;;5010857;28;20684;-69
2023/08/28 12:01:00;;;;;;;1.13;1.02;;;24.70;90.90;;;;;;5026624;28;20629;-69
2023/08/28 12:03:28;;;;;;;1.88;1.42;;;24.80;91.40;;;;;;5016624;28;20698;-70
2023/08/28 12:06:06;;;;;;;1.20;1.15;;;24.90;90.50;;;;;;5025685;28;20202;-69
2023/08/28 12:08:36;;;;;;;1.60;1.50;;;25.00;90.50;;;;;;5025231;28;20207;-69
2023/08/28 12:11:04;;;;;;;1.55;1.20;;;25.00;89.70;;;;;;5026321;28;20194;-70
2023/08/28 12:13:33;;;;;;;1.35;1.20;;;24.90;89.60;;;;;;5024492;28;20638;-71
2023/08/28 12:16:08;;;;;;;1.35;1.25;;;24.90;90.10;;;;;;5027522;28;20194;-69
2023/08/28 12:18:48;;;;;;;1.20;1.10;;;24.80;90.30;;;;;;5006592;28;20333;-71
2023/08/28 12:21:15;;;;;;;1.50;1.10;;;24.80;90.60;;;;;;5011702;28;20778;-69
2023/08/28 12:23:51;;;;;;;1.42;0.80;;;24.80;90.70;;;;;;5028415;28;20521;-69
2023/08/28 12:26:19;;;;;;;4.07;1.15;;;24.80;90.70;;;;;;5029931;28;20194;-70
2023/08/28 12:28:47;;;;;;;1.33;1.17;;;24.70;90.00;;;;;;5027612;28;20610;-70
2023/08/28 12:31:14;;;;;;;1.20;1.10;;;24.60;89.50;;;;;;5019031;28;20230;-69
2023/08/28 12:33:41;;;;;;;1.20;0.82;;;24.60;89.70;;;;;;5027784;28;20246;-70
2023/08/28 12:36:09;;;;;;;1.95;1.35;;;24.50;90.00;;;;;;5030573;28;20685;-70
2023/08/28 12:38:48;;;;;;;1.05;1.02;;;24.60;90.10;;;;;;5028930;28;20198;-70
2023/08/28 12:41:15;;;;;;;0.98;0.98;;;24.70;90.10;;;;;;5028261;28;20605;-69
2023/08/28 12:43:45;;;;;;;1.30;1.08;;;24.80;90.10;;;;;;5029124;28;20253;-69
2023/08/28 12:46:12;;;;;;;1.38;1.20;;;24.90;89.80;;;;;;5031187;28;20194;-69
2023/08/28 12:48:39;;;;;;;1.10;1.10;;;25.00;89.30;;;;;;5028720;28;20651;-69
2023/08/28 12:51:06;;;;;;;1.13;1.00;;;25.00;89.00;;;;;;5031800;28;20719;-69
2023/08/28 12:53:33;;;;;;;2.05;1.10;;;25.00;89.10;;;;;;5030340;28;20628;-69
2023/08/28 12:56:03;;;;;;;1.27;1.17;;;25.00;88.80;;;;;;5030482;28;20286;-69
2023/08/28 12:58:30;;;;;;;3.13;1.23;;;24.90;88.20;;;;;;5030269;28;20285;-70